Time;durP1;ratioP1;P1;durP2;ratioP2;P2;SDS_P1;SDS_P2;PMS_P1;PMS_P2;Temp;Humidity;BMP_temperature;BMP_pressure;BME280_temperature;BME280_humidity;BME280_pressure;Samples;Min_cycle;Max_cycle;Signal;HPM_P1;HPM_P2
2022/09/10 00:01:54;;;;;;;;;;;15.90;99.90;;;;;;5043667;28;19933;-77
2022/09/10 00:04:21;;;;;;;;;;;15.90;99.90;;;;;;5049783;28;20424;-77
2022/09/10 00:06:49;;;;;;;;;;;16.00;99.90;;;;;;5047321;28;20020;-78
2022/09/10 00:09:16;;;;;;;;;;;16.00;99.90;;;;;;5031269;28;19932;-78
2022/09/10 00:11:45;;;;;;;;;;;16.00;99.90;;;;;;5048774;28;19932;-78
2022/09/10 00:14:14;;;;;;;;;;;16.10;99.90;;;;;;5047885;28;20020;-78
2022/09/10 00:16:40;;;;;;;;;;;16.10;99.90;;;;;;5044801;28;20382;-77
2022/09/10 00:19:07;;;;;;;;;;;16.10;99.90;;;;;;5049879;28;20024;-78
2022/09/10 00:21:34;;;;;;;;;;;16.10;99.90;;;;;;5047972;28;20397;-77
2022/09/10 00:24:03;;;;;;;;;;;16.10;99.90;;;;;;5049497;28;19929;-78
2022/09/10 00:26:33;;;;;;;;;;;16.10;99.90;;;;;;5030188;28;19925;-78
2022/09/10 00:29:00;;;;;;;;;;;16.20;99.90;;;;;;5050948;28;19928;-78
2022/09/10 00:31:28;;;;;;;;;;;16.20;99.90;;;;;;5048021;28;20457;-78
2022/09/10 00:33:55;;;;;;;;;;;16.30;99.90;;;;;;5031515;28;19935;-78
2022/09/10 00:36:23;;;;;;;;;;;16.30;99.90;;;;;;5049686;28;19967;-78
2022/09/10 00:38:50;;;;;;;;;;;16.20;99.90;;;;;;5041102;28;19935;-78
2022/09/10 00:41:19;;;;;;;;;;;16.30;99.90;;;;;;5049133;28;20543;-78
2022/09/10 00:43:48;;;;;;;;;;;16.30;99.90;;;;;;5024522;28;19929;-78
2022/09/10 00:46:18;;;;;;;;;;;16.30;99.90;;;;;;5049190;28;19932;-78
2022/09/10 00:48:44;;;;;;;;;;;16.30;99.90;;;;;;5051261;28;19932;-77
2022/09/10 00:51:11;;;;;;;;;;;16.30;99.90;;;;;;5034599;28;19928;-78
2022/09/10 00:53:39;;;;;;;;;;;16.30;99.90;;;;;;5038574;22;19935;-76
2022/09/10 00:56:06;;;;;;;;;;;16.30;99.90;;;;;;5021693;28;19933;-78
2022/09/10 00:58:34;;;;;;;;;;;16.40;99.90;;;;;;5051795;28;20014;-78
2022/09/10 01:01:02;;;;;;;;;;;16.40;99.90;;;;;;5033263;28;19936;-78
2022/09/10 01:03:29;;;;;;;;;;;16.40;99.90;;;;;;5028882;28;19960;-78
2022/09/10 01:05:57;;;;;;;;;;;16.40;99.90;;;;;;5032214;28;19941;-77
2022/09/10 01:08:24;;;;;;;;;;;16.40;99.90;;;;;;5014318;28;19929;-78
2022/09/10 01:11:00;;;;;;;;;;;16.40;99.90;;;;;;5014909;28;20343;-77
2022/09/10 01:13:33;;;;;;;;;;;16.50;99.90;;;;;;5014455;28;19925;-78
2022/09/10 01:16:07;;;;;;;;;;;16.50;99.90;;;;;;5014936;28;19936;-78
2022/09/10 01:18:41;;;;;;;;;;;16.50;99.90;;;;;;5014996;28;19932;-78
2022/09/10 01:21:18;;;;;;;;;;;16.50;99.90;;;;;;5034622;28;19932;-78
2022/09/10 01:24:04;;;;;;;;;;;16.50;99.90;;;;;;5036275;28;20011;-79
2022/09/10 01:26:37;;;;;;;;;;;16.50;99.90;;;;;;5006117;28;19933;-78
2022/09/10 01:29:07;;;;;;;;;;;16.40;99.90;;;;;;5016419;28;19929;-78
2022/09/10 01:31:39;;;;;;;;;;;16.40;99.90;;;;;;5014403;28;19971;-78
2022/09/10 01:34:14;;;;;;;;;;;16.40;99.90;;;;;;5015156;28;19929;-78
2022/09/10 01:36:46;;;;;;;;;;;16.40;99.90;;;;;;5010754;28;20039;-77
2022/09/10 01:39:14;;;;;;;;;;;16.40;99.90;;;;;;5018498;28;20015;-77
2022/09/10 01:41:41;;;;;;;;;;;16.30;99.90;;;;;;5013774;28;20016;-77
2022/09/10 01:44:12;;;;;;;;;;;16.30;99.90;;;;;;5013407;28;19925;-77
2022/09/10 01:46:46;;;;;;;;;;;16.30;99.90;;;;;;5014370;28;20037;-78
2022/09/10 01:49:21;;;;;;;;;;;16.30;99.90;;;;;;5015747;28;19933;-78
2022/09/10 01:51:57;;;;;;;;;;;16.30;99.90;;;;;;5011665;28;20600;-78
2022/09/10 01:54:32;;;;;;;;;;;16.20;99.90;;;;;;5014827;28;19929;-78
2022/09/10 01:57:06;;;;;;;;;;;16.20;99.90;;;;;;5032754;28;19991;-77
2022/09/10 01:59:39;;;;;;;;;;;16.20;99.90;;;;;;5015573;28;19929;-81
2022/09/10 02:02:08;;;;;;;;;;;16.10;99.90;;;;;;5014127;28;20024;-81
2022/09/10 02:04:36;;;;;;;;;;;16.10;99.90;;;;;;5012097;28;19931;-77
2022/09/10 02:07:04;;;;;;;;;;;16.10;99.90;;;;;;5433848;22;19956;-78
2022/09/10 02:09:31;;;;;;;;;;;16.10;99.90;;;;;;5052475;28;19944;-79
2022/09/10 02:11:58;;;;;;;;;;;16.10;99.90;;;;;;5049654;28;20350;-78
2022/09/10 02:14:49;;;;;;;;;;;16.10;99.90;;;;;;5050660;28;19936;-79
2022/09/10 02:17:23;;;;;;;;;;;16.20;99.90;;;;;;5049348;28;19952;-79
2022/09/10 02:19:51;;;;;;;;;;;16.20;99.90;;;;;;5049875;28;19928;-78
2022/09/10 02:22:18;;;;;;;;;;;16.20;99.90;;;;;;5048235;28;19964;-79
2022/09/10 02:24:45;;;;;;;;;;;16.30;99.90;;;;;;5053739;28;19929;-79
2022/09/10 02:27:12;;;;;;;;;;;16.30;99.90;;;;;;5069695;28;19935;-79
2022/09/10 02:29:39;;;;;;;;;;;16.30;99.90;;;;;;5054161;28;19956;-78
2022/09/10 02:32:08;;;;;;;;;;;16.40;99.90;;;;;;5048424;28;19994;-79
2022/09/10 02:34:35;;;;;;;;;;;16.40;99.90;;;;;;5058353;28;20216;-79
2022/09/10 02:37:02;;;;;;;;;;;16.40;99.90;;;;;;5080497;28;19928;-79
2022/09/10 02:39:29;;;;;;;;;;;16.50;99.90;;;;;;5065058;28;20445;-79
2022/09/10 02:41:57;;;;;;;;;;;16.50;99.90;;;;;;5063742;28;19956;-79
2022/09/10 02:44:26;;;;;;;;;;;16.50;99.90;;;;;;5049397;28;19964;-79
2022/09/10 02:46:52;;;;;;;;;;;16.50;99.90;;;;;;5049231;28;20011;-78
2022/09/10 02:49:20;;;;;;;;;;;16.50;99.90;;;;;;5049957;28;19925;-78
2022/09/10 02:51:47;;;;;;;;;;;16.40;99.90;;;;;;5048706;28;20019;-79
2022/09/10 02:54:14;;;;;;;;;;;16.40;99.90;;;;;;5049280;28;19928;-82
2022/09/10 02:56:42;;;;;;;;;;;16.40;99.90;;;;;;5049234;28;19928;-79
2022/09/10 02:59:08;;;;;;;;;;;16.30;99.90;;;;;;5067735;28;19928;-79
2022/09/10 03:01:36;;;;;;;;;;;16.30;99.90;;;;;;5065744;28;19936;-79
2022/09/10 03:04:05;;;;;;;;;;;16.20;99.90;;;;;;5060429;28;19935;-79
2022/09/10 03:06:33;;;;;;;;;;;16.20;99.90;;;;;;5063130;28;19935;-79
2022/09/10 03:09:00;;;;;;;;;;;16.10;99.90;;;;;;5053099;28;19929;-79
2022/09/10 03:11:28;;;;;;;;;;;16.10;99.90;;;;;;5065550;28;19932;-77
2022/09/10 03:13:57;;;;;;;;;;;16.00;99.90;;;;;;5058015;28;19931;-77
2022/09/10 03:16:24;;;;;;;;;;;16.10;99.90;;;;;;5054916;28;19932;-78
2022/09/10 03:18:51;;;;;;;;;;;16.10;99.90;;;;;;5053797;28;19928;-77
2022/09/10 03:21:19;;;;;;;;;;;16.00;99.90;;;;;;5054160;28;20359;-77
2022/09/10 03:23:48;;;;;;;;;;;16.00;99.90;;;;;;5053235;28;19935;-78
2022/09/10 03:26:19;;;;;;;;;;;16.00;99.90;;;;;;5061202;28;19929;-78
2022/09/10 03:28:47;;;;;;;;;;;16.10;99.90;;;;;;5069126;28;19924;-78
2022/09/10 03:31:16;;;;;;;;;;;16.00;99.90;;;;;;5052288;28;19947;-77
2022/09/10 03:33:47;;;;;;;;;;;16.00;99.90;;;;;;5056595;28;20018;-78
2022/09/10 03:36:14;;;;;;;;;;;16.00;99.90;;;;;;5061525;28;19929;-77
2022/09/10 03:38:43;;;;;;;;;;;16.10;99.90;;;;;;5049926;28;19929;-77
2022/09/10 03:41:11;;;;;;;;;;;16.10;99.90;;;;;;5032854;28;20490;-78
2022/09/10 03:43:38;;;;;;;;;;;16.10;99.90;;;;;;5042440;28;19964;-77
2022/09/10 03:46:09;;;;;;;;;;;16.10;99.90;;;;;;5049237;28;20013;-77
2022/09/10 03:48:39;;;;;;;;;;;16.10;99.90;;;;;;5032887;28;20350;-77
2022/09/10 03:51:07;;;;;;;;;;;16.10;99.90;;;;;;5051396;28;19987;-77
2022/09/10 03:53:34;;;;;;;;;;;16.10;99.90;;;;;;5054511;28;19936;-77
2022/09/10 03:56:02;;;;;;;;;;;16.10;99.90;;;;;;5060753;28;19929;-77
2022/09/10 03:58:31;;;;;;;;;;;16.20;99.90;;;;;;5071592;28;20026;-77
2022/09/10 04:00:57;;;;;;;;;;;16.10;99.90;;;;;;5054105;28;20415;-77
2022/09/10 04:03:24;;;;;;;;;;;16.10;99.90;;;;;;5072234;28;19975;-77
2022/09/10 04:05:51;;;;;;;;;;;16.20;99.90;;;;;;5057324;28;19954;-80
2022/09/10 04:08:19;;;;;;;;;;;16.20;99.90;;;;;;5052392;28;19928;-77
2022/09/10 04:10:47;;;;;;;;;;;16.30;99.90;;;;;;5052905;28;19931;-80
2022/09/10 04:13:14;;;;;;;;;;;16.30;99.90;;;;;;5052504;28;20464;-78
2022/09/10 04:15:44;;;;;;;;;;;16.30;99.90;;;;;;5052131;28;19928;-78
2022/09/10 04:18:11;;;;;;;;;;;16.30;99.90;;;;;;5052025;28;19935;-78
2022/09/10 04:20:39;;;;;;;;;;;16.30;99.90;;;;;;5052595;28;20332;-78
2022/09/10 04:23:09;;;;;;;;;;;16.30;99.90;;;;;;5053000;28;19929;-76
2022/09/10 04:25:37;;;;;;;;;;;16.20;99.90;;;;;;5059514;28;19928;-77
2022/09/10 04:28:04;;;;;;;;;;;16.20;99.90;;;;;;5063340;28;19928;-77
2022/09/10 04:30:32;;;;;;;;;;;16.30;99.90;;;;;;5052278;28;19932;-78
2022/09/10 04:33:00;;;;;;;;;;;16.30;99.90;;;;;;5052456;28;19955;-79
2022/09/10 04:35:29;;;;;;;;;;;16.30;99.90;;;;;;5061853;28;20452;-79
2022/09/10 04:37:57;;;;;;;;;;;16.30;99.90;;;;;;5070276;28;19935;-79
2022/09/10 04:40:26;;;;;;;;;;;16.20;99.90;;;;;;5052235;28;19936;-79
2022/09/10 04:42:52;;;;;;;;;;;16.10;99.90;;;;;;5070020;28;19928;-79
2022/09/10 04:45:19;;;;;;;;;;;16.10;99.90;;;;;;5069402;28;19935;-78
2022/09/10 04:47:46;;;;;;;;;;;16.00;99.90;;;;;;5069128;28;20348;-78
2022/09/10 04:50:15;;;;;;;;;;;15.90;99.90;;;;;;5051580;28;19973;-79
2022/09/10 04:53:01;;;;;;;;;;;15.90;99.90;;;;;;5068994;28;19928;-80
2022/09/10 04:55:30;;;;;;;;;;;15.80;99.90;;;;;;5055566;28;19935;-79
2022/09/10 04:57:57;;;;;;;;;;;15.80;99.90;;;;;;5058155;28;19931;-79
2022/09/10 05:00:23;;;;;;;;;;;15.70;99.90;;;;;;5051292;28;20042;-78
2022/09/10 05:02:50;;;;;;;;;;;15.70;99.90;;;;;;5046124;28;19928;-78
2022/09/10 05:05:19;;;;;;;;;;;15.70;99.90;;;;;;5059832;28;20024;-79
2022/09/10 05:07:47;;;;;;;;;;;15.60;99.90;;;;;;5071162;28;20024;-79
2022/09/10 05:10:14;;;;;;;;;;;15.70;99.90;;;;;;5073176;28;19964;-78
2022/09/10 05:12:41;;;;;;;;;;;15.60;99.90;;;;;;5050886;28;19932;-78
2022/09/10 05:15:08;;;;;;;;;;;15.60;99.90;;;;;;5050756;28;20469;-78
2022/09/10 05:17:36;;;;;;;;;;;15.60;99.90;;;;;;5050709;28;20396;-78
2022/09/10 05:20:05;;;;;;;;;;;15.60;99.90;;;;;;5051713;28;19936;-78
2022/09/10 05:22:36;;;;;;;;;;;15.60;99.90;;;;;;5050826;28;20000;-78
2022/09/10 05:25:03;;;;;;;;;;;15.60;99.90;;;;;;5052370;28;20552;-78
2022/09/10 05:27:30;;;;;;;;;;;15.60;99.90;;;;;;5050284;28;19935;-78
2022/09/10 05:29:58;;;;;;;;;;;15.50;99.90;;;;;;5048312;28;20404;-79
2022/09/10 05:32:27;;;;;;;;;;;15.50;99.90;;;;;;5050020;28;20451;-78
2022/09/10 05:34:54;;;;;;;;;;;15.60;99.90;;;;;;5051571;28;20442;-78
2022/09/10 05:37:21;;;;;;;;;;;15.60;99.90;;;;;;5066863;28;20408;-78
2022/09/10 05:39:49;;;;;;;;;;;15.60;99.90;;;;;;5047349;28;19935;-79
2022/09/10 05:42:17;;;;;;;;;;;15.60;99.90;;;;;;5052048;28;19933;-79
2022/09/10 05:44:44;;;;;;;;;;;15.60;99.90;;;;;;5049243;28;20562;-78
2022/09/10 05:47:11;;;;;;;;;;;15.60;99.90;;;;;;5068943;28;20404;-78
2022/09/10 05:49:37;;;;;;;;;;;15.70;99.90;;;;;;5068119;28;20445;-79
2022/09/10 05:52:05;;;;;;;;;;;15.70;99.90;;;;;;5050057;28;19950;-78
2022/09/10 05:54:31;;;;;;;;;;;15.70;99.90;;;;;;5041351;28;20364;-78
2022/09/10 05:56:59;;;;;;;;;;;15.70;99.90;;;;;;5055897;28;19944;-78
2022/09/10 05:59:26;;;;;;;;;;;15.70;99.90;;;;;;5040831;28;19990;-78
2022/09/10 06:01:54;;;;;;;;;;;15.80;99.90;;;;;;5040040;28;20722;-78
2022/09/10 06:04:23;;;;;;;;;;;15.80;99.90;;;;;;5038631;28;20025;-78
2022/09/10 06:06:49;;;;;;;;;;;15.80;99.90;;;;;;5037852;28;20005;-78
2022/09/10 06:09:18;;;;;;;;;;;15.80;99.90;;;;;;5040940;28;19940;-78
2022/09/10 06:11:56;;;;;;;;;;;15.90;99.90;;;;;;5039959;28;20836;-78
2022/09/10 06:14:25;;;;;;;;;;;15.90;99.90;;;;;;5040769;28;19932;-78
2022/09/10 06:16:55;;;;;;;;;;;15.90;99.90;;;;;;5040282;28;19938;-78
2022/09/10 06:19:24;;;;;;;;;;;16.00;99.90;;;;;;5049434;28;20037;-79
2022/09/10 06:21:52;;;;;;;;;;;16.00;99.90;;;;;;5042094;28;20138;-79
2022/09/10 06:24:19;;;;;;;;;;;16.00;99.90;;;;;;5058642;28;19936;-77
2022/09/10 06:26:48;;;;;;;;;;;16.10;99.90;;;;;;5037391;28;19933;-77
2022/09/10 06:29:17;;;;;;;;;;;16.20;99.90;;;;;;5038356;28;20008;-79
2022/09/10 06:31:45;;;;;;;;;;;16.40;99.90;;;;;;5040206;28;20116;-79
2022/09/10 06:34:13;;;;;;;;;;;16.50;99.90;;;;;;5054017;28;19940;-78
2022/09/10 06:36:40;;;;;;;;;;;16.60;99.90;;;;;;5039907;28;20046;-78
2022/09/10 06:39:08;;;;;;;;;;;16.70;99.90;;;;;;5059031;28;19932;-78
2022/09/10 06:41:56;;;;;;;;;;;16.70;99.90;;;;;;5039914;28;19932;-78
2022/09/10 06:44:41;;;;;;;;;;;16.80;99.90;;;;;;5057224;28;20166;-77
2022/09/10 06:47:28;;;;;;;;;;;16.80;99.90;;;;;;5056012;28;20658;-77
2022/09/10 06:49:55;;;;;;;;;;;16.80;99.90;;;;;;5055164;28;19954;-77
2022/09/10 06:52:23;;;;;;;;;;;16.80;99.90;;;;;;5054348;28;19925;-77
2022/09/10 06:54:58;;;;;;;;;;;16.70;99.90;;;;;;5043712;28;19932;-77
2022/09/10 06:57:45;;;;;;;;;;;16.70;99.90;;;;;;5062999;28;19929;-77
2022/09/10 07:00:14;;;;;;;;;;;16.70;99.90;;;;;;5046642;28;19929;-77
2022/09/10 07:02:49;;;;;;;;;;;16.80;99.90;;;;;;5045968;28;20098;-78
2022/09/10 07:05:16;;;;;;;;;;;16.80;99.90;;;;;;5047450;28;20579;-77
2022/09/10 07:07:43;;;;;;;;;;;16.80;99.90;;;;;;5044936;28;19932;-78
2022/09/10 07:10:10;;;;;;;;;;;16.80;99.90;;;;;;5044028;28;20916;-77
2022/09/10 07:12:38;;;;;;;;;;;16.90;99.90;;;;;;5058373;28;20476;-77
2022/09/10 07:15:07;;;;;;;;;;;17.00;99.90;;;;;;5040662;28;19976;-77
2022/09/10 07:17:34;;;;;;;;;;;17.10;99.90;;;;;;5038850;28;20040;-77
2022/09/10 07:20:03;;;;;;;;;;;17.20;99.90;;;;;;5056529;28;19932;-77
2022/09/10 07:22:38;;;;;;;;;;;17.40;99.90;;;;;;5056420;28;19932;-77
2022/09/10 07:25:09;;;;;;;;;;;17.60;99.90;;;;;;5041319;28;21259;-77
2022/09/10 07:27:51;;;;;;;;;;;16.90;99.90;;;;;;5039392;28;19940;-77
2022/09/10 07:30:21;;;;;;;;;;;17.60;99.90;;;;;;5056609;28;20524;-77
2022/09/10 07:32:49;;;;;;;;;;;17.70;99.90;;;;;;5039947;28;19932;-77
2022/09/10 07:35:19;;;;;;;;;;;17.70;99.90;;;;;;5039526;28;20007;-79
2022/09/10 07:37:46;;;;;;;;;;;17.70;99.90;;;;;;5041005;28;19943;-78
2022/09/10 07:40:14;;;;;;;;;;;17.70;99.90;;;;;;5057433;28;19939;-80
2022/09/10 07:42:42;;;;;;;;;;;17.80;99.90;;;;;;5040253;28;20005;-79
2022/09/10 07:45:12;;;;;;;;;;;17.80;99.90;;;;;;5055449;28;19932;-77
2022/09/10 07:47:39;;;;;;;;;;;17.80;99.90;;;;;;5037909;28;19933;-77
2022/09/10 07:50:07;;;;;;;;;;;17.70;99.90;;;;;;5040478;28;20176;-78
2022/09/10 07:52:35;;;;;;;;;;;17.70;99.90;;;;;;5040532;28;19939;-78
2022/09/10 07:55:03;;;;;;;;;;;17.70;99.90;;;;;;5042297;28;19929;-78
2022/09/10 07:57:31;;;;;;;;;;;17.70;99.90;;;;;;5042303;28;19928;-79
2022/09/10 07:59:59;;;;;;;;;;;17.70;99.90;;;;;;5046541;28;19996;-77
2022/09/10 08:02:27;;;;;;;;;;;17.60;99.90;;;;;;5046355;28;20026;-78
2022/09/10 08:05:03;;;;;;;;;;;17.60;99.90;;;;;;5063782;28;19938;-77
2022/09/10 08:07:31;;;;;;;;;;;17.60;99.90;;;;;;5050633;28;19934;-77
2022/09/10 08:09:59;;;;;;;;;;;17.60;99.90;;;;;;5051452;28;19933;-78
2022/09/10 08:12:28;;;;;;;;;;;17.60;99.90;;;;;;5052155;28;20842;-79
2022/09/10 08:14:56;;;;;;;;;;;17.70;99.90;;;;;;5048934;28;19940;-78
2022/09/10 08:17:23;;;;;;;;;;;17.80;99.90;;;;;;5047438;28;21243;-77
2022/09/10 08:19:53;;;;;;;;;;;17.90;99.90;;;;;;5066409;28;19942;-77
2022/09/10 08:22:21;;;;;;;;;;;18.00;99.90;;;;;;5046532;28;19967;-79
2022/09/10 08:24:54;;;;;;;;;;;18.10;99.90;;;;;;5052534;23;19956;-77
2022/09/10 08:27:25;;;;;;;;;;;18.30;99.90;;;;;;5045508;28;19930;-75
2022/09/10 08:29:56;;;;;;;;;;;18.40;99.90;;;;;;5058790;28;19974;-76
2022/09/10 08:32:23;;;;;;;;;;;18.60;99.90;;;;;;5065871;28;19990;-75
2022/09/10 08:34:52;;;;;;;;;;;18.70;99.90;;;;;;5063483;28;19935;-75
2022/09/10 08:37:19;;;;;;;;;;;18.90;99.90;;;;;;5058114;28;20383;-75
2022/09/10 08:39:46;;;;;;;;;;;19.00;99.90;;;;;;5042943;28;19987;-75
2022/09/10 08:42:17;;;;;;;;;;;19.10;99.90;;;;;;5049822;28;20383;-75
2022/09/10 08:44:48;;;;;;;;;;;19.20;99.90;;;;;;5050337;28;19928;-75
2022/09/10 08:47:24;;;;;;;;;;;19.30;99.90;;;;;;5034685;28;19951;-75
2022/09/10 08:49:57;;;;;;;;;;;19.40;99.90;;;;;;5051341;28;19924;-75
2022/09/10 08:52:28;;;;;;;;;;;19.50;99.90;;;;;;5068766;28;19960;-76
2022/09/10 08:54:59;;;;;;;;;;;19.50;99.90;;;;;;5049032;28;20353;-75
2022/09/10 08:57:31;;;;;;;;;;;19.60;99.90;;;;;;5056220;28;19932;-75
2022/09/10 09:00:01;;;;;;;;;;;19.60;99.90;;;;;;5059717;28;19929;-75
2022/09/10 09:02:33;;;;;;;;;;;19.50;99.90;;;;;;5039813;28;19928;-76
2022/09/10 09:05:13;;;;;;;;;;;19.50;99.90;;;;;;5052053;28;19951;-75
2022/09/10 09:07:57;;;;;;;;;;;;;;;;;;;;;
2022/09/10 09:10:32;;;;;;;;;;;19.20;99.90;;;;;;5053846;28;19932;-75
2022/09/10 09:13:17;;;;;;;;;;;18.90;99.90;;;;;;5051392;28;19929;-75
2022/09/10 09:15:50;;;;;;;;;;;18.50;99.90;;;;;;5036975;28;19929;-75
2022/09/10 09:18:26;;;;;;;;;;;18.50;99.90;;;;;;5047621;28;19963;-77
2022/09/10 09:20:59;;;;;;;;;;;18.20;99.90;;;;;;5036443;28;20366;-76
2022/09/10 09:23:33;;;;;;;;;;;17.70;99.90;;;;;;5036498;28;19924;-76
2022/09/10 09:26:12;;;;;;;;;;;17.50;99.90;;;;;;5054121;28;19935;-76
2022/09/10 09:28:43;;;;;;;;;;;17.50;99.90;;;;;;5054239;28;19929;-77
2022/09/10 09:31:23;;;;;;;;;;;17.40;99.90;;;;;;5055316;28;19987;-77
2022/09/10 09:36:55;;;;;;;;;;;17.10;99.90;;;;;;5036770;28;20634;-76
2022/09/10 09:39:28;;;;;;;;;;;17.10;99.90;;;;;;5067318;28;20794;-77
2022/09/10 09:42:06;;;;;;;;;;;17.00;99.90;;;;;;5061333;28;19933;-78
2022/09/10 09:44:49;;;;;;;;;;;17.00;99.90;;;;;;5047420;28;19928;-77
2022/09/10 09:47:23;;;;;;;;;;;17.00;99.90;;;;;;5070642;28;19924;-78
2022/09/10 09:49:50;;;;;;;;;;;17.00;99.90;;;;;;5051693;28;19928;-77
2022/09/10 09:52:19;;;;;;;;;;;17.00;99.90;;;;;;5070366;28;20299;-77
2022/09/10 09:54:50;;;;;;;;;;;17.00;99.90;;;;;;5067303;28;20346;-78
2022/09/10 09:57:18;;;;;;;;;;;17.00;99.90;;;;;;5051216;28;19928;-77
2022/09/10 09:59:48;;;;;;;;;;;17.00;99.90;;;;;;5052053;28;20403;-79
2022/09/10 10:02:17;;;;;;;;;;;17.00;99.90;;;;;;5051360;28;19931;-79
2022/09/10 10:04:55;;;;;;;;;;;17.00;99.90;;;;;;5049611;28;19932;-78
2022/09/10 10:07:25;;;;;;;;;;;17.00;99.90;;;;;;5062066;28;19928;-79
2022/09/10 10:09:53;;;;;;;;;;;17.00;99.90;;;;;;5052012;28;19936;-79
2022/09/10 10:12:20;;;;;;;;;;;17.00;99.90;;;;;;5067422;28;20424;-79
2022/09/10 10:14:48;;;;;;;;;;;17.00;99.90;;;;;;5051284;28;20423;-78
2022/09/10 10:17:22;;;;;;;;;;;16.90;99.90;;;;;;5048561;28;20034;-79
2022/09/10 10:20:00;;;;;;;;;;;17.00;99.90;;;;;;5057727;28;20910;-79
2022/09/10 10:22:29;;;;;;;;;;;17.00;99.90;;;;;;5063183;28;19972;-78
2022/09/10 10:24:56;;;;;;;;;;;16.90;99.90;;;;;;5051678;28;19932;-79
2022/09/10 10:27:26;;;;;;;;;;;17.00;99.90;;;;;;5064421;28;19936;-79
2022/09/10 10:29:58;;;;;;;;;;;17.00;99.90;;;;;;5048517;28;19928;-79
2022/09/10 10:32:30;;;;;;;;;;;17.10;99.90;;;;;;5064332;28;19939;-79
2022/09/10 10:35:02;;;;;;;;;;;17.20;99.90;;;;;;5068499;28;20435;-79
2022/09/10 10:37:34;;;;;;;;;;;17.30;99.90;;;;;;5057093;28;19962;-79
2022/09/10 10:40:14;;;;;;;;;;;17.40;99.90;;;;;;5043973;28;20050;-79
2022/09/10 10:42:42;;;;;;;;;;;17.50;99.90;;;;;;5042887;28;20516;-79
2022/09/10 10:45:21;;;;;;;;;;;17.80;99.90;;;;;;5049633;28;19932;-79
2022/09/10 10:47:54;;;;;;;;;;;18.20;99.90;;;;;;5054264;28;19925;-80
2022/09/10 10:50:28;;;;;;;;;;;18.60;99.90;;;;;;5058142;28;19982;-79
2022/09/10 10:53:07;;;;;;;;;;;17.70;99.90;;;;;;5054824;28;19924;-79
2022/09/10 10:55:38;;;;;;;;;;;19.30;99.90;;;;;;5047781;28;20026;-79
2022/09/10 10:58:19;;;;;;;;;;;19.80;99.90;;;;;;5070069;28;20117;-80
2022/09/10 11:00:50;;;;;;;;;;;20.00;99.90;;;;;;5049575;28;20000;-80
2022/09/10 11:03:20;;;;;;;;;;;20.00;99.90;;;;;;5074317;28;19924;-79
2022/09/10 11:05:48;;;;;;;;;;;20.40;99.90;;;;;;5073938;28;19936;-78
2022/09/10 11:08:22;;;;;;;;;;;20.40;99.90;;;;;;5072579;28;19928;-80
2022/09/10 11:10:52;;;;;;;;;;;20.50;99.90;;;;;;5060624;28;19932;-80
2022/09/10 11:13:22;;;;;;;;;;;20.60;99.90;;;;;;5056161;28;19947;-79
2022/09/10 11:15:51;;;;;;;;;;;21.00;99.90;;;;;;5061241;28;19947;-81
2022/09/10 11:18:21;;;;;;;;;;;21.00;99.90;;;;;;5079698;28;19925;-80
2022/09/10 11:20:55;;;;;;;;;;;21.30;99.90;;;;;;5077195;28;20000;-81
2022/09/10 11:23:28;;;;;;;;;;;21.40;99.90;;;;;;5078203;28;20986;-81
2022/09/10 11:25:58;;;;;;;;;;;21.30;99.90;;;;;;5055090;28;20015;-80
2022/09/10 11:28:31;;;;;;;;;;;21.30;99.90;;;;;;5059515;28;19931;-80
2022/09/10 11:31:08;;;;;;;;;;;21.20;99.90;;;;;;5062012;28;20496;-81
2022/09/10 11:33:45;;;;;;;;;;;20.90;99.90;;;;;;5079647;28;19924;-81
2022/09/10 11:36:19;;;;;;;;;;;20.80;99.90;;;;;;5064767;28;20453;-84
2022/09/10 11:38:58;;;;;;;;;;;20.80;99.90;;;;;;5069693;28;19932;-83
2022/09/10 11:41:26;;;;;;;;;;;;;;;;;;5071673;28;19928;-83
2022/09/10 11:43:57;;;;;;;;;;;20.90;99.90;;;;;;5079553;28;20043;-83
2022/09/10 11:46:26;;;;;;;;;;;20.80;99.90;;;;;;5074504;28;19925;-83
2022/09/10 11:48:56;;;;;;;;;;;20.60;99.90;;;;;;5075766;28;19949;-83
2022/09/10 11:51:25;;;;;;;;;;;20.50;99.90;;;;;;5061183;28;20249;-84
2022/09/10 11:53:55;;;;;;;;;;;20.50;99.90;;;;;;5056792;28;19929;-83
2022/09/10 11:56:30;;;;;;;;;;;20.50;99.90;;;;;;5061927;28;19938;-83
2022/09/10 11:59:12;;;;;;;;;;;20.50;99.90;;;;;;5059045;28;19932;-82
2022/09/10 12:02:01;;;;;;;;;;;20.10;99.90;;;;;;5069525;28;19928;-83
2022/09/10 12:04:37;;;;;;;;;;;20.40;99.90;;;;;;5055454;28;19929;-83
2022/09/10 12:07:08;;;;;;;;;;;20.40;99.90;;;;;;5078342;28;19986;-83
2022/09/10 12:09:44;;;;;;;;;;;20.40;99.90;;;;;;5063008;28;20121;-83
2022/09/10 12:12:21;;;;;;;;;;;20.20;99.90;;;;;;5070218;28;20308;-83
2022/09/10 12:14:48;;;;;;;;;;;20.20;99.90;;;;;;5070080;28;19988;-83
2022/09/10 12:17:18;;;;;;;;;;;20.20;99.90;;;;;;5067590;28;20623;-83
2022/09/10 12:19:47;;;;;;;;;;;20.20;99.90;;;;;;5078435;28;19982;-83
2022/09/10 12:22:21;;;;;;;;;;;20.20;99.90;;;;;;5051943;28;19984;-83
2022/09/10 12:24:55;;;;;;;;;;;20.20;99.90;;;;;;5068913;28;19924;-83
2022/09/10 12:27:43;;;;;;;;;;;20.20;99.90;;;;;;5058883;28;19937;-84
2022/09/10 12:30:33;;;;;;;;;;;20.10;99.90;;;;;;5056362;28;19939;-83
2022/09/10 12:33:01;;;;;;;;;;;19.90;99.90;;;;;;5063747;28;19925;-83
2022/09/10 12:35:44;;;;;;;;;;;19.10;99.90;;;;;;5078067;28;19935;-82
2022/09/10 12:38:32;;;;;;;;;;;19.70;99.90;;;;;;5066566;28;19924;-82
2022/09/10 12:41:02;;;;;;;;;;;19.70;99.90;;;;;;5067240;28;19924;-82
2022/09/10 12:43:49;;;;;;;;;;;19.60;99.90;;;;;;5071283;28;19928;-84
2022/09/10 12:46:17;;;;;;;;;;;19.60;99.90;;;;;;5050798;28;19952;-83
2022/09/10 12:48:46;;;;;;;;;;;19.60;99.90;;;;;;5072155;28;19924;-83
2022/09/10 12:51:22;;;;;;;;;;;19.70;99.90;;;;;;5072799;28;19933;-83
2022/09/10 12:54:13;;;;;;;;;;;19.70;99.90;;;;;;5065939;28;19925;-83
2022/09/10 12:56:58;;;;;;;;;;;19.90;99.90;;;;;;5051409;28;20257;-83
2022/09/10 12:59:33;;;;;;;;;;;20.00;99.90;;;;;;5060474;28;19936;-83
2022/09/10 13:02:01;;;;;;;;;;;20.10;99.90;;;;;;5056982;28;19928;-84
2022/09/10 13:04:29;;;;;;;;;;;20.20;99.90;;;;;;5064970;28;20023;-83
2022/09/10 13:06:59;;;;;;;;;;;20.20;99.90;;;;;;5051734;28;19935;-83
2022/09/10 13:09:28;;;;;;;;;;;20.20;99.90;;;;;;5071926;28;19967;-83
2022/09/10 13:11:59;;;;;;;;;;;20.30;99.90;;;;;;5061327;28;19968;-84
2022/09/10 13:14:27;;;;;;;;;;;20.30;99.90;;;;;;5080844;28;19935;-83
2022/09/10 13:16:55;;;;;;;;;;;20.40;99.90;;;;;;5078179;28;19924;-83
2022/09/10 13:19:41;;;;;;;;;;;20.50;99.90;;;;;;5058182;28;19928;-83
2022/09/10 13:22:23;;;;;;;;;;;20.80;99.90;;;;;;5052559;28;19993;-80
2022/09/10 13:24:59;;;;;;;;;;;21.10;99.90;;;;;;5041232;28;19983;-80
2022/09/10 13:27:39;;;;;;;;;;;21.10;99.90;;;;;;5043239;28;19986;-80
2022/09/10 13:30:17;;;;;;;;;;;21.40;99.90;;;;;;5061152;28;19959;-79
2022/09/10 13:32:47;;;;;;;;;;;21.50;99.90;;;;;;5043334;28;19929;-79
2022/09/10 13:35:28;;;;;;;;;;;21.60;99.90;;;;;;5059708;28;19995;-80
2022/09/10 13:38:06;;;;;;;;;;;21.60;99.90;;;;;;5054859;28;19968;-79
2022/09/10 13:40:56;;;;;;;;;;;21.70;99.90;;;;;;5054707;28;20011;-79
2022/09/10 13:43:47;;;;;;;;;;;21.80;99.90;;;;;;5073349;28;19932;-79
2022/09/10 13:46:21;;;;;;;;;;;21.70;99.90;;;;;;5055025;28;19928;-79
2022/09/10 13:48:51;;;;;;;;;;;21.50;99.90;;;;;;5051370;28;19929;-79
2022/09/10 13:51:24;;;;;;;;;;;21.20;99.90;;;;;;5034631;28;19928;-79
2022/09/10 13:53:55;;;;;;;;;;;20.90;99.90;;;;;;5051880;28;19943;-79
2022/09/10 13:56:32;;;;;;;;;;;20.60;99.90;;;;;;5050483;28;19933;-79
2022/09/10 13:59:02;;;;;;;;;;;20.40;99.90;;;;;;5033650;28;20370;-79
2022/09/10 14:01:46;;;;;;;;;;;20.20;99.90;;;;;;5034912;28;19979;-79
2022/09/10 14:04:21;;;;;;;;;;;20.10;99.90;;;;;;5047162;28;20000;-79
2022/09/10 14:06:48;;;;;;;;;;;20.10;99.90;;;;;;5033924;28;19929;-79
2022/09/10 14:09:15;;;;;;;;;;;20.10;99.90;;;;;;5034748;28;19932;-79
2022/09/10 14:11:43;;;;;;;;;;;20.20;99.90;;;;;;5050993;28;19932;-79
2022/09/10 14:14:15;;;;;;;;;;;20.30;99.90;;;;;;5034946;28;20380;-79
2022/09/10 14:20:23;;;;;;;;;;;20.30;99.90;;;;;;5066555;28;20365;-83
2022/09/10 14:22:58;;;;;;;;;;;20.30;99.90;;;;;;5049701;28;19929;-83
2022/09/10 14:25:30;;;;;;;;;;;20.40;99.90;;;;;;5064893;28;20055;-82
2022/09/10 14:28:11;;;;;;;;;;;20.50;99.90;;;;;;5059203;28;19933;-82
2022/09/10 14:30:40;;;;;;;;;;;20.50;99.90;;;;;;5049987;28;19938;-83
2022/09/10 14:33:24;;;;;;;;;;;20.70;99.90;;;;;;5058034;28;20373;-83
2022/09/10 14:35:52;;;;;;;;;;;20.90;99.90;;;;;;5066709;28;19951;-83
2022/09/10 14:38:25;;;;;;;;;;;20.90;99.90;;;;;;5054327;28;19929;-83
2022/09/10 14:40:57;;;;;;;;;;;20.90;99.90;;;;;;5050362;28;19928;-83
2022/09/10 14:43:28;;;;;;;;;;;20.90;99.90;;;;;;5060186;28;19925;-82
2022/09/10 14:45:57;;;;;;;;;;;20.80;99.90;;;;;;5059093;28;19928;-82
2022/09/10 14:48:34;;;;;;;;;;;20.90;99.90;;;;;;5056749;28;19931;-82